Latest Coastal Weather Observations for Wadeye (Port Keats)

IDD60701

Issued at 7:51 am CST Friday 27 May 2016 (issued every 10 minutes, with the page automatically refreshed every 10 minutes)

About coastal observations | Map of coastal stations | Coastal observations for NT | Marine services | Other Formats
Station Details ID: 014948 Name: PORT KEATS AIRPORT Lat: -14.25 Lon: 129.53 Height: 28.0 m
Data from the previous 72 hours. | See also: Recent months at Wadeye (Port Keats)
Date/Time
CST
Temp

°C
Wind Pressure Rain
since 9am
mm
Weather Cloud Vis
km
Sea
Height
m
Swell
Dir
 
Speed
knots
Gust
knots
hPa Trend Height
m
Period
s
Dir
27/07:30am 21.8 CALM 0 0 1013.1 - 0.0 - - - - - - -
27/07:00am 22.0 CALM 0 0 1013.0 - 0.0 - - - - - - -
27/06:30am 21.4 CALM 0 0 1012.9 - 0.0 - - - - - - -
27/06:00am 21.3 CALM 0 0 1012.6 - 0.0 - - - - - - -
27/05:30am 21.5 CALM 0 0 1012.4 - 0.0 - - - - - - -
27/05:00am 21.5 CALM 0 0 1012.2 - 0.0 - - - - - - -
27/04:30am 21.5 CALM 0 1 1012.0 - 0.0 - - - - - - -
27/04:00am 21.7 SSW 3 4 1012.0 - 0.0 - - - - - - -
27/03:30am 22.6 S 3 5 1012.1 - 0.0 - - - - - - -
27/03:00am 21.6 S 1 4 1012.2 - 0.0 - - - - - - -
27/02:30am 21.8 CALM 0 0 1012.2 - 0.0 - - - - - - -
27/02:00am 22.1 CALM 0 0 1012.4 - 0.0 - - - - - - -
27/01:30am 22.2 CALM 0 0 1012.5 - 0.0 - - - - - - -
27/01:00am 22.3 CALM 0 0 1012.4 - 0.0 - - - - - - -
27/12:30am 22.3 S 2 4 1012.5 - 0.0 - - - - - - -
27/12:00am 22.5 SSW 2 4 1012.6 - 0.0 - - - - - - -
 
Date/Time
CST
Temp

°C
Wind Pressure Rain
since 9am
mm
Weather Cloud Vis
km
Sea
Height
m
Swell
Dir
 
Speed
knots
Gust
knots
hPa Trend Height
m
Period
s
Dir
26/11:30pm 23.4 CALM 0 0 1012.5 - 0.0 - - - - - - -
26/11:00pm 22.8 CALM 0 0 1012.6 - 0.0 - - - - - - -
26/10:30pm 23.5 CALM 0 0 1012.6 - 0.0 - - - - - - -
26/10:00pm 23.9 CALM 0 0 1012.7 - 0.0 - - - - - - -
26/09:30pm 24.4 CALM 0 0 1012.5 - 0.0 - - - - - - -
26/09:00pm 25.0 CALM 0 0 1012.5 - 0.0 - - - - - - -
26/08:30pm 25.5 CALM 0 2 1012.3 - 0.0 - - - - - - -
26/08:00pm 25.8 CALM 0 0 1012.1 - 0.0 - - - - - - -
26/07:30pm 26.5 SW 2 5 1011.8 - 0.0 - - - - - - -
26/07:00pm 27.6 SW 3 5 1011.8 - 0.0 - - - - - - -
26/06:30pm 28.6 WSW 3 5 1011.5 - 0.0 - - - - - - -
26/06:00pm 30.3 W 4 5 1011.3 - 0.0 - - - - - - -
26/05:30pm 31.1 W 5 7 1011.1 - 0.0 - - - - - - -
26/05:00pm 31.0 WSW 6 9 1010.9 - 0.0 - - - - - - -
26/04:30pm 32.1 W 6 9 1010.9 - 0.0 - - - - - - -
26/04:00pm 31.8 W 6 11 1010.8 - 0.0 - - - - - - -
26/03:30pm 32.2 W 6 9 1011.0 - 0.0 - - - - - - -
26/03:00pm 32.7 WNW 7 11 1011.2 - 0.0 - - - - - - -
26/02:30pm 32.6 WNW 7 9 1011.4 - 0.0 - - - - - - -
26/02:00pm 33.3 WNW 6 11 1011.7 - 0.0 - - - - - - -
26/01:30pm 34.3 N 6 9 1012.1 - 0.0 - - - - - - -
26/01:00pm 33.8 SSE 4 7 1012.6 - 0.0 - - - - - - -
26/12:30pm 33.0 SE 6 9 1013.0 - 0.0 - - - - - - -
26/12:00pm 33.4 E 3 6 1013.5 - 0.0 - - - - - - -
26/11:30am 31.9 SE 4 7 1013.9 - 0.0 - - - - - - -
26/11:00am 31.7 SSE 5 8 1014.3 - 0.0 - - - - - - -
26/10:30am 31.1 SSE 3 5 1014.5 - 0.0 - - - - - - -
26/10:00am 29.6 S 4 7 1014.4 - 0.0 - - - - - - -
26/09:30am 29.0 SSE 7 9 1014.2 - 0.0 - - - - - - -
26/09:00am 27.6 S 4 5 1014.1 - 0.0 - - - - - - -
26/08:30am 26.1 CALM 0 0 1013.8 - 0.0 - - - - - - -
26/08:00am 21.9 CALM 0 0 1013.3 - 0.0 - - - - - - -
26/07:30am 20.7 CALM 0 0 1013.1 - 0.0 - - - - - - -
26/07:00am 20.8 CALM 0 0 1012.8 - 0.0 - - - - - - -
26/06:30am 20.9 CALM 0 0 1012.5 - 0.0 - - - - - - -
26/06:00am 21.8 CALM 0 0 1012.3 - 0.0 - - - - - - -
26/05:30am 22.0 CALM 0 0 1012.0 - 0.0 - - - - - - -
26/05:00am 21.9 CALM 0 0 1011.9 - 0.0 - - - - - - -
26/04:30am 22.5 N 2 5 1011.9 - 0.0 - - - - - - -
26/04:00am 21.5 CALM 0 0 1011.7 - 0.0 - - - - - - -
26/03:30am 21.9 CALM 0 0 1011.7 - 0.0 - - - - - - -
26/03:00am 22.3 CALM 0 0 1011.8 - 0.0 - - - - - - -
26/02:30am 22.3 CALM 0 0 1012.1 - 0.0 - - - - - - -
26/02:00am 22.6 CALM 0 1 1012.1 - 0.0 - - - - - - -
26/01:30am 22.4 S 3 4 1012.1 - 0.0 - - - - - - -
26/01:00am 22.7 CALM 0 0 1012.3 - 0.0 - - - - - - -
26/12:30am 23.3 CALM 0 0 1012.3 - 0.0 - - - - - - -
26/12:00am 24.1 S 1 4 1012.3 - 0.0 - - - - - - -
 
Date/Time
CST
Temp

°C
Wind Pressure Rain
since 9am
mm
Weather Cloud Vis
km
Sea
Height
m
Swell
Dir
 
Speed
knots
Gust
knots
hPa Trend Height
m
Period
s
Dir
25/11:30pm 23.7 CALM 0 0 1012.5 - 0.0 - - - - - - -
25/11:00pm 23.8 CALM 0 0 1012.5 - 0.0 - - - - - - -
25/10:30pm 24.1 CALM 0 2 1012.5 - 0.0 - - - - - - -
25/10:00pm 24.3 CALM 0 0 1012.5 - 0.0 - - - - - - -
25/09:30pm 24.7 CALM 0 0 1012.3 - 0.0 - - - - - - -
25/09:00pm 25.5 CALM 0 0 1012.2 - 0.0 - - - - - - -
25/08:30pm 26.2 CALM 0 3 1012.0 - 0.0 - - - - - - -
25/08:00pm 26.5 SW 2 4 1011.8 - 0.0 - - - - - - -
25/07:30pm 27.0 CALM 0 0 1011.5 - 0.0 - - - - - - -
25/07:00pm 28.0 W 1 3 1011.1 - 0.0 - - - - - - -
25/06:30pm 29.1 W 3 4 1010.9 - 0.0 - - - - - - -
25/06:00pm 30.7 W 3 6 1010.6 - 0.0 - - - - - - -
25/05:30pm 31.6 WSW 5 7 1010.3 - 0.0 - - - - - - -
25/05:00pm 32.1 WSW 6 9 1010.0 - 0.0 - - - - - - -
25/04:30pm 32.6 W 7 11 1009.7 - 0.0 - - - - - - -
25/04:00pm 34.6 WSW 3 5 1009.6 - 0.0 - - - - - - -
25/03:30pm 33.8 SSE 5 9 1009.6 - 0.0 - - - - - - -
25/03:00pm 33.8 ESE 3 8 1009.8 - 0.0 - - - - - - -
25/02:30pm 33.7 S 5 8 1010.1 - 0.0 - - - - - - -
25/02:00pm 33.8 ENE 5 9 1010.6 - 0.0 - - - - - - -
25/01:30pm 33.5 ENE 7 12 1011.2 - 0.0 - - - - - - -
25/01:00pm 33.2 ENE 7 13 1011.7 - 0.0 - - - - - - -
25/12:30pm 32.6 E 7 10 1012.1 - 0.0 - - - - - - -
25/12:00pm 31.9 NE 9 12 1012.6 - 0.0 - - - - - - -
25/11:30am 32.0 ENE 8 11 1012.9 - 0.0 - - - - - - -
25/11:00am 31.3 ENE 7 12 1013.1 - 0.0 - - - - - - -
25/10:30am 30.4 E 8 15 1013.3 - 0.0 - - - - - - -
25/10:00am 29.9 ENE 8 13 1013.3 - 0.0 - - - - - - -
25/09:30am 28.9 E 7 10 1013.3 - 0.0 - - - - - - -
25/09:00am 28.0 ENE 6 9 1013.3 - 0.0 - - - - - - -
25/08:30am 27.4 E 4 6 1013.1 - 0.0 - - - - - - -
25/08:00am 25.0 ESE 3 4 1013.0 - 0.0 - - - - - - -
25/07:30am 23.2 ESE 2 4 1012.7 - 0.0 - - - - - - -
25/07:00am 23.5 ESE 4 5 1012.4 - 0.0 - - - - - - -
25/06:30am 22.9 CALM 0 0 1012.1 - 0.0 - - - - - - -
25/06:00am 23.3 E 4 5 1011.7 - 0.0 - - - - - - -
25/05:30am 21.8 CALM 0 0 1011.4 - 0.0 - - - - - - -
25/05:00am 21.9 CALM 0 0 1011.2 - 0.0 - - - - - - -
25/04:30am 22.2 CALM 0 0 1011.2 - 0.0 - - - - - - -
25/04:00am 22.5 CALM 0 0 1011.2 - 0.0 - - - - - - -
25/03:30am 23.0 CALM 0 0 1011.2 - 0.0 - - - - - - -
25/03:00am 22.9 CALM 0 0 1011.1 - 0.0 - - - - - - -
25/02:30am 22.6 CALM 0 0 1011.3 - 0.0 - - - - - - -
25/02:00am 23.0 CALM 0 0 1011.5 - 0.0 - - - - - - -
25/01:30am 23.7 CALM 0 0 1011.6 - 0.0 - - - - - - -
25/01:00am 23.9 CALM 0 0 1011.5 - 0.0 - - - - - - -
25/12:30am 23.7 CALM 0 0 1011.6 - 0.0 - - - - - - -
25/12:00am 23.6 SSW 3 4 1011.7 - 0.0 - - - - - - -
 
Date/Time
CST
Temp

°C
Wind Pressure Rain
since 9am
mm
Weather Cloud Vis
km
Sea
Height
m
Swell
Dir
 
Speed
knots
Gust
knots
hPa Trend Height
m
Period
s
Dir
24/11:30pm 24.0 S 3 5 1011.9 - 0.0 - - - - - - -
24/11:00pm 24.1 S 1 4 1011.9 - 0.0 - - - - - - -
24/10:30pm 24.4 CALM 0 0 1011.9 - 0.0 - - - - - - -
24/10:00pm 24.6 SSW 3 4 1011.9 - 0.0 - - - - - - -
24/09:30pm 25.5 SSW 4 6 1012.0 - 0.0 - - - - - - -
24/09:00pm 25.9 SSW 4 6 1011.9 - 0.0 - - - - - - -
24/08:30pm 25.8 SSW 3 4 1011.7 - 0.0 - - - - - - -
24/08:00pm 26.3 CALM 0 0 1011.4 - 0.0 - - - - - - -
24/07:30pm 27.3 SSW 1 3 1011.2 - 0.0 - - - - - - -
24/07:00pm 28.1 SW 2 3 1010.7 - 0.0 - - - - - - -
24/06:30pm 29.5 SW 3 5 1010.6 - 0.0 - - - - - - -
24/06:00pm 31.2 WSW 4 6 1010.4 - 0.0 - - - - - - -
24/05:30pm 31.8 W 5 8 1010.1 - 0.0 - - - - - - -
24/05:00pm 32.4 W 6 8 1009.9 - 0.0 - - - - - - -
24/04:30pm 32.5 W 6 9 1009.9 - 0.0 - - - - - - -
24/04:00pm 32.8 W 7 10 1009.9 - 0.0 - - - - - - -
24/03:30pm 34.8 WSW 1 4 1010.0 - 0.0 - - - - - - -
24/03:00pm 34.5 SW 4 6 1010.1 - 0.0 - - - - - - -
24/02:30pm 34.3 ESE 6 9 1010.5 - 0.0 - - - - - - -
24/02:00pm 34.0 ENE 4 8 1010.8 - 0.0 - - - - - - -
24/01:30pm 34.0 ESE 5 9 1011.3 - 0.0 - - - - - - -
24/01:00pm 33.6 E 7 10 1011.9 - 0.0 - - - - - - -
24/12:30pm 33.1 ENE 8 13 1012.4 - 0.0 - - - - - - -
24/12:00pm 33.1 E 7 11 1012.8 - 0.0 - - - - - - -
24/11:30am 32.8 ESE 6 9 1013.0 - 0.0 - - - - - - -
24/11:00am 31.8 SE 7 9 1013.3 - 0.0 - - - - - - -
24/10:30am 31.0 SE 8 11 1013.5 - 0.0 - - - - - - -
24/10:00am 30.0 SSE 9 11 1013.5 - 0.0 - - - - - - -
24/09:30am 29.3 SSE 7 9 1013.4 - 0.0 - - - - - - -
24/09:00am 28.3 SSE 7 10 1013.3 - 0.0 - - - - - - -
24/08:30am 27.1 SSE 9 11 1013.0 - 0.0 - - - - - - -
24/08:00am 25.7 SSE 6 9 1012.7 - 0.0 - - - - - - -

Other Formats:

Comma delimited format used in spreadsheet applications
http://www.bom.gov.au/fwo/IDD60701/IDD60701.95111.axf

JavaScript Object Notation format (JSON) in row-major order
http://www.bom.gov.au/fwo/IDD60701/IDD60701.95111.json